sensor_id;sensor_type;location;lat;lon;timestamp;P1;durP1;ratioP1;P2;durP2;ratioP2
23406;SDS011;11876;53.438;18.942;2023-02-08T00:01:52;44.10;;;26.37;;
23406;SDS011;11876;53.438;18.942;2023-02-08T00:04:55;64.40;;;37.20;;
23406;SDS011;11876;53.438;18.942;2023-02-08T00:07:57;61.97;;;34.42;;
23406;SDS011;11876;53.438;18.942;2023-02-08T00:11:00;59.08;;;34.92;;
23406;SDS011;11876;53.438;18.942;2023-02-08T00:14:02;58.17;;;36.78;;
23406;SDS011;11876;53.438;18.942;2023-02-08T00:17:05;55.13;;;31.27;;
23406;SDS011;11876;53.438;18.942;2023-02-08T00:20:07;60.03;;;34.15;;
23406;SDS011;11876;53.438;18.942;2023-02-08T00:23:10;55.67;;;34.80;;
23406;SDS011;11876;53.438;18.942;2023-02-08T00:26:13;62.08;;;36.40;;
23406;SDS011;11876;53.438;18.942;2023-02-08T00:29:17;54.97;;;32.75;;
23406;SDS011;11876;53.438;18.942;2023-02-08T00:32:19;50.95;;;30.17;;
23406;SDS011;11876;53.438;18.942;2023-02-08T00:35:23;54.17;;;31.92;;
23406;SDS011;11876;53.438;18.942;2023-02-08T00:38:26;54.85;;;31.90;;
23406;SDS011;11876;53.438;18.942;2023-02-08T00:41:29;45.60;;;26.60;;
23406;SDS011;11876;53.438;18.942;2023-02-08T00:44:31;58.22;;;33.97;;
23406;SDS011;11876;53.438;18.942;2023-02-08T00:47:34;60.45;;;34.47;;
23406;SDS011;11876;53.438;18.942;2023-02-08T00:50:36;55.70;;;32.17;;
23406;SDS011;11876;53.438;18.942;2023-02-08T00:53:40;52.72;;;29.67;;
23406;SDS011;11876;53.438;18.942;2023-02-08T00:56:44;54.10;;;31.67;;
23406;SDS011;11876;53.438;18.942;2023-02-08T00:59:46;58.60;;;34.20;;
23406;SDS011;11876;53.438;18.942;2023-02-08T01:02:49;56.00;;;32.38;;
23406;SDS011;11876;53.438;18.942;2023-02-08T01:05:51;57.05;;;33.55;;
23406;SDS011;11876;53.438;18.942;2023-02-08T01:08:54;41.33;;;23.20;;
23406;SDS011;11876;53.438;18.942;2023-02-08T01:11:56;61.33;;;34.00;;
23406;SDS011;11876;53.438;18.942;2023-02-08T01:14:59;61.92;;;35.40;;
23406;SDS011;11876;53.438;18.942;2023-02-08T01:18:01;61.15;;;35.75;;
23406;SDS011;11876;53.438;18.942;2023-02-08T01:21:04;49.75;;;30.63;;
23406;SDS011;11876;53.438;18.942;2023-02-08T01:24:12;52.13;;;30.48;;
23406;SDS011;11876;53.438;18.942;2023-02-08T01:27:14;55.03;;;31.50;;
23406;SDS011;11876;53.438;18.942;2023-02-08T01:30:16;55.03;;;31.20;;
23406;SDS011;11876;53.438;18.942;2023-02-08T01:33:19;50.92;;;29.95;;
23406;SDS011;11876;53.438;18.942;2023-02-08T01:36:21;50.88;;;29.98;;
23406;SDS011;11876;53.438;18.942;2023-02-08T01:39:23;54.47;;;29.75;;
23406;SDS011;11876;53.438;18.942;2023-02-08T01:42:26;50.58;;;29.35;;
23406;SDS011;11876;53.438;18.942;2023-02-08T01:45:29;48.97;;;28.30;;
23406;SDS011;11876;53.438;18.942;2023-02-08T01:48:34;48.25;;;28.92;;
23406;SDS011;11876;53.438;18.942;2023-02-08T01:51:41;47.85;;;27.10;;
23406;SDS011;11876;53.438;18.942;2023-02-08T01:54:49;44.22;;;27.80;;
23406;SDS011;11876;53.438;18.942;2023-02-08T01:57:54;46.15;;;28.50;;
23406;SDS011;11876;53.438;18.942;2023-02-08T02:00:59;45.53;;;27.30;;
23406;SDS011;11876;53.438;18.942;2023-02-08T02:04:02;50.25;;;28.45;;
23406;SDS011;11876;53.438;18.942;2023-02-08T02:07:06;45.47;;;28.85;;
23406;SDS011;11876;53.438;18.942;2023-02-08T02:10:15;51.25;;;28.55;;
23406;SDS011;11876;53.438;18.942;2023-02-08T02:13:22;48.58;;;27.73;;
23406;SDS011;11876;53.438;18.942;2023-02-08T02:16:27;47.65;;;27.10;;
23406;SDS011;11876;53.438;18.942;2023-02-08T02:22:50;51.67;;;29.48;;
23406;SDS011;11876;53.438;18.942;2023-02-08T02:32:56;44.45;;;28.27;;
23406;SDS011;11876;53.438;18.942;2023-02-08T02:49:47;48.20;;;28.40;;
23406;SDS011;11876;53.438;18.942;2023-02-08T02:56:38;45.72;;;27.02;;
23406;SDS011;11876;53.438;18.942;2023-02-08T02:59:43;46.03;;;27.00;;
23406;SDS011;11876;53.438;18.942;2023-02-08T03:05:49;45.92;;;26.75;;
23406;SDS011;11876;53.438;18.942;2023-02-08T03:09:04;42.90;;;25.23;;
23406;SDS011;11876;53.438;18.942;2023-02-08T03:19:21;43.63;;;27.75;;
23406;SDS011;11876;53.438;18.942;2023-02-08T03:29:25;42.03;;;24.15;;
23406;SDS011;11876;53.438;18.942;2023-02-08T03:35:48;43.85;;;26.80;;
23406;SDS011;11876;53.438;18.942;2023-02-08T03:38:58;36.78;;;24.30;;
23406;SDS011;11876;53.438;18.942;2023-02-08T03:42:13;44.35;;;27.33;;
23406;SDS011;11876;53.438;18.942;2023-02-08T03:45:25;41.00;;;24.50;;
23406;SDS011;11876;53.438;18.942;2023-02-08T03:48:31;34.50;;;23.63;;
23406;SDS011;11876;53.438;18.942;2023-02-08T03:51:35;33.35;;;22.65;;
23406;SDS011;11876;53.438;18.942;2023-02-08T03:54:47;35.45;;;22.23;;
23406;SDS011;11876;53.438;18.942;2023-02-08T03:57:56;32.05;;;21.77;;
23406;SDS011;11876;53.438;18.942;2023-02-08T04:01:04;32.38;;;21.20;;
23406;SDS011;11876;53.438;18.942;2023-02-08T04:04:12;30.52;;;20.48;;
23406;SDS011;11876;53.438;18.942;2023-02-08T04:07:16;29.73;;;20.55;;
23406;SDS011;11876;53.438;18.942;2023-02-08T04:10:19;27.77;;;18.40;;
23406;SDS011;11876;53.438;18.942;2023-02-08T04:13:21;29.20;;;18.98;;
23406;SDS011;11876;53.438;18.942;2023-02-08T04:16:24;29.65;;;19.60;;
23406;SDS011;11876;53.438;18.942;2023-02-08T04:19:26;31.63;;;20.00;;
23406;SDS011;11876;53.438;18.942;2023-02-08T04:22:28;36.30;;;22.08;;
23406;SDS011;11876;53.438;18.942;2023-02-08T04:25:31;36.05;;;23.85;;
23406;SDS011;11876;53.438;18.942;2023-02-08T04:28:33;32.78;;;21.20;;
23406;SDS011;11876;53.438;18.942;2023-02-08T04:31:35;38.72;;;22.90;;
23406;SDS011;11876;53.438;18.942;2023-02-08T04:34:38;45.03;;;24.38;;
23406;SDS011;11876;53.438;18.942;2023-02-08T04:37:41;27.37;;;17.83;;
23406;SDS011;11876;53.438;18.942;2023-02-08T04:40:43;39.38;;;23.33;;
23406;SDS011;11876;53.438;18.942;2023-02-08T04:43:46;37.05;;;22.75;;
23406;SDS011;11876;53.438;18.942;2023-02-08T04:46:48;33.58;;;22.48;;
23406;SDS011;11876;53.438;18.942;2023-02-08T04:49:50;34.78;;;22.10;;
23406;SDS011;11876;53.438;18.942;2023-02-08T04:52:53;47.78;;;27.13;;
23406;SDS011;11876;53.438;18.942;2023-02-08T04:55:55;58.22;;;31.00;;
23406;SDS011;11876;53.438;18.942;2023-02-08T04:58:57;53.58;;;28.90;;
23406;SDS011;11876;53.438;18.942;2023-02-08T05:02:00;45.47;;;26.77;;
23406;SDS011;11876;53.438;18.942;2023-02-08T05:05:02;42.45;;;25.15;;
23406;SDS011;11876;53.438;18.942;2023-02-08T05:08:05;47.67;;;23.27;;
23406;SDS011;11876;53.438;18.942;2023-02-08T05:11:08;50.15;;;30.52;;
23406;SDS011;11876;53.438;18.942;2023-02-08T05:14:10;32.58;;;22.13;;
23406;SDS011;11876;53.438;18.942;2023-02-08T05:17:12;32.92;;;19.52;;
23406;SDS011;11876;53.438;18.942;2023-02-08T05:20:15;39.45;;;22.85;;
23406;SDS011;11876;53.438;18.942;2023-02-08T05:23:17;54.42;;;31.55;;
23406;SDS011;11876;53.438;18.942;2023-02-08T05:26:20;45.03;;;26.65;;
23406;SDS011;11876;53.438;18.942;2023-02-08T05:29:23;50.22;;;26.60;;
23406;SDS011;11876;53.438;18.942;2023-02-08T05:32:25;35.55;;;19.70;;
23406;SDS011;11876;53.438;18.942;2023-02-08T05:35:28;37.03;;;21.58;;
23406;SDS011;11876;53.438;18.942;2023-02-08T05:38:30;53.00;;;28.45;;
23406;SDS011;11876;53.438;18.942;2023-02-08T05:41:32;48.63;;;27.27;;
23406;SDS011;11876;53.438;18.942;2023-02-08T05:44:35;50.08;;;27.83;;
23406;SDS011;11876;53.438;18.942;2023-02-08T05:47:37;82.57;;;42.67;;
23406;SDS011;11876;53.438;18.942;2023-02-08T05:50:40;45.55;;;25.40;;
23406;SDS011;11876;53.438;18.942;2023-02-08T05:53:43;33.10;;;19.60;;
23406;SDS011;11876;53.438;18.942;2023-02-08T05:56:45;51.05;;;27.80;;
23406;SDS011;11876;53.438;18.942;2023-02-08T05:59:48;47.75;;;26.30;;
23406;SDS011;11876;53.438;18.942;2023-02-08T06:02:50;45.13;;;24.02;;
23406;SDS011;11876;53.438;18.942;2023-02-08T06:05:53;52.45;;;27.73;;
23406;SDS011;11876;53.438;18.942;2023-02-08T06:08:55;46.15;;;24.83;;
23406;SDS011;11876;53.438;18.942;2023-02-08T06:11:58;48.00;;;26.10;;
23406;SDS011;11876;53.438;18.942;2023-02-08T06:15:00;39.33;;;22.77;;
23406;SDS011;11876;53.438;18.942;2023-02-08T06:18:03;45.75;;;25.50;;
23406;SDS011;11876;53.438;18.942;2023-02-08T06:21:05;33.15;;;18.98;;
23406;SDS011;11876;53.438;18.942;2023-02-08T06:24:07;34.70;;;19.73;;
23406;SDS011;11876;53.438;18.942;2023-02-08T06:27:12;31.13;;;19.67;;
23406;SDS011;11876;53.438;18.942;2023-02-08T06:30:14;35.42;;;20.85;;
23406;SDS011;11876;53.438;18.942;2023-02-08T06:33:17;45.63;;;26.48;;
23406;SDS011;11876;53.438;18.942;2023-02-08T06:36:19;53.88;;;28.65;;
23406;SDS011;11876;53.438;18.942;2023-02-08T06:39:22;44.55;;;24.52;;
23406;SDS011;11876;53.438;18.942;2023-02-08T06:42:25;51.53;;;26.65;;
23406;SDS011;11876;53.438;18.942;2023-02-08T06:45:27;42.33;;;23.38;;
23406;SDS011;11876;53.438;18.942;2023-02-08T06:48:30;39.33;;;22.98;;
23406;SDS011;11876;53.438;18.942;2023-02-08T06:51:32;45.58;;;25.75;;
23406;SDS011;11876;53.438;18.942;2023-02-08T06:54:35;53.33;;;26.50;;
23406;SDS011;11876;53.438;18.942;2023-02-08T06:57:37;74.25;;;33.22;;
23406;SDS011;11876;53.438;18.942;2023-02-08T07:00:39;46.97;;;24.75;;
23406;SDS011;11876;53.438;18.942;2023-02-08T07:03:42;159.55;;;74.32;;
23406;SDS011;11876;53.438;18.942;2023-02-08T07:06:48;227.77;;;105.38;;
23406;SDS011;11876;53.438;18.942;2023-02-08T07:09:50;120.80;;;57.45;;
23406;SDS011;11876;53.438;18.942;2023-02-08T07:12:53;71.22;;;36.63;;
23406;SDS011;11876;53.438;18.942;2023-02-08T07:15:55;50.55;;;27.85;;
23406;SDS011;11876;53.438;18.942;2023-02-08T07:18:57;42.80;;;24.17;;
23406;SDS011;11876;53.438;18.942;2023-02-08T07:22:00;48.00;;;27.83;;
23406;SDS011;11876;53.438;18.942;2023-02-08T07:25:08;51.15;;;27.60;;
23406;SDS011;11876;53.438;18.942;2023-02-08T07:28:11;48.95;;;26.00;;
23406;SDS011;11876;53.438;18.942;2023-02-08T07:31:14;43.65;;;24.27;;
23406;SDS011;11876;53.438;18.942;2023-02-08T07:34:17;45.72;;;24.98;;
23406;SDS011;11876;53.438;18.942;2023-02-08T07:37:22;63.22;;;31.98;;
23406;SDS011;11876;53.438;18.942;2023-02-08T07:40:24;57.85;;;30.70;;
23406;SDS011;11876;53.438;18.942;2023-02-08T07:43:27;55.22;;;27.92;;
23406;SDS011;11876;53.438;18.942;2023-02-08T07:46:33;44.85;;;26.10;;
23406;SDS011;11876;53.438;18.942;2023-02-08T07:49:35;71.72;;;35.28;;
23406;SDS011;11876;53.438;18.942;2023-02-08T07:52:38;73.10;;;34.50;;
23406;SDS011;11876;53.438;18.942;2023-02-08T07:55:43;71.68;;;33.65;;
23406;SDS011;11876;53.438;18.942;2023-02-08T07:58:46;155.95;;;61.05;;
23406;SDS011;11876;53.438;18.942;2023-02-08T08:01:49;52.45;;;29.58;;
23406;SDS011;11876;53.438;18.942;2023-02-08T08:04:51;49.92;;;28.38;;
23406;SDS011;11876;53.438;18.942;2023-02-08T08:07:55;35.20;;;20.33;;
23406;SDS011;11876;53.438;18.942;2023-02-08T08:10:57;48.25;;;25.88;;
23406;SDS011;11876;53.438;18.942;2023-02-08T08:14:01;55.78;;;29.08;;
23406;SDS011;11876;53.438;18.942;2023-02-08T08:17:03;64.45;;;31.88;;
23406;SDS011;11876;53.438;18.942;2023-02-08T08:20:07;61.75;;;33.42;;
23406;SDS011;11876;53.438;18.942;2023-02-08T08:23:11;95.93;;;52.20;;
23406;SDS011;11876;53.438;18.942;2023-02-08T08:26:18;108.22;;;58.85;;
23406;SDS011;11876;53.438;18.942;2023-02-08T08:29:21;102.53;;;58.30;;
23406;SDS011;11876;53.438;18.942;2023-02-08T08:32:23;78.28;;;42.95;;
23406;SDS011;11876;53.438;18.942;2023-02-08T08:35:26;101.97;;;51.70;;
23406;SDS011;11876;53.438;18.942;2023-02-08T08:38:28;85.72;;;45.80;;
23406;SDS011;11876;53.438;18.942;2023-02-08T08:41:31;82.50;;;43.20;;
23406;SDS011;11876;53.438;18.942;2023-02-08T08:44:33;78.97;;;41.45;;
23406;SDS011;11876;53.438;18.942;2023-02-08T08:47:36;59.67;;;34.75;;
23406;SDS011;11876;53.438;18.942;2023-02-08T08:50:39;57.67;;;34.10;;
23406;SDS011;11876;53.438;18.942;2023-02-08T08:53:43;59.92;;;32.28;;
23406;SDS011;11876;53.438;18.942;2023-02-08T08:56:46;48.55;;;27.20;;
23406;SDS011;11876;53.438;18.942;2023-02-08T08:59:48;51.38;;;29.10;;
23406;SDS011;11876;53.438;18.942;2023-02-08T09:02:50;54.15;;;32.00;;
23406;SDS011;11876;53.438;18.942;2023-02-08T09:05:53;55.40;;;32.30;;
23406;SDS011;11876;53.438;18.942;2023-02-08T09:08:55;53.90;;;30.10;;
23406;SDS011;11876;53.438;18.942;2023-02-08T09:11:58;69.47;;;37.42;;
23406;SDS011;11876;53.438;18.942;2023-02-08T09:15:01;60.72;;;34.95;;
23406;SDS011;11876;53.438;18.942;2023-02-08T09:18:04;55.05;;;32.47;;
23406;SDS011;11876;53.438;18.942;2023-02-08T09:21:11;51.20;;;30.40;;
23406;SDS011;11876;53.438;18.942;2023-02-08T09:24:18;54.80;;;32.25;;
23406;SDS011;11876;53.438;18.942;2023-02-08T09:27:20;70.82;;;36.70;;
23406;SDS011;11876;53.438;18.942;2023-02-08T09:30:22;66.90;;;33.70;;
23406;SDS011;11876;53.438;18.942;2023-02-08T09:33:25;60.90;;;33.15;;
23406;SDS011;11876;53.438;18.942;2023-02-08T09:36:28;72.40;;;34.47;;
23406;SDS011;11876;53.438;18.942;2023-02-08T09:39:33;117.75;;;52.95;;
23406;SDS011;11876;53.438;18.942;2023-02-08T09:42:37;61.28;;;31.17;;
23406;SDS011;11876;53.438;18.942;2023-02-08T09:45:49;47.13;;;28.23;;
23406;SDS011;11876;53.438;18.942;2023-02-08T09:49:00;56.38;;;32.22;;
23406;SDS011;11876;53.438;18.942;2023-02-08T09:52:15;58.13;;;32.80;;
23406;SDS011;11876;53.438;18.942;2023-02-08T09:58:26;109.20;;;50.17;;
23406;SDS011;11876;53.438;18.942;2023-02-08T10:01:32;59.97;;;34.80;;
23406;SDS011;11876;53.438;18.942;2023-02-08T10:04:38;75.75;;;43.78;;
23406;SDS011;11876;53.438;18.942;2023-02-08T10:07:47;82.63;;;47.33;;
23406;SDS011;11876;53.438;18.942;2023-02-08T10:10:52;67.18;;;39.78;;
23406;SDS011;11876;53.438;18.942;2023-02-08T10:37:31;81.40;;;43.30;;
23406;SDS011;11876;53.438;18.942;2023-02-08T10:40:38;69.40;;;38.88;;
23406;SDS011;11876;53.438;18.942;2023-02-08T10:43:42;69.18;;;35.47;;
23406;SDS011;11876;53.438;18.942;2023-02-08T10:47:13;56.00;;;31.58;;
23406;SDS011;11876;53.438;18.942;2023-02-08T10:50:27;47.25;;;29.50;;
23406;SDS011;11876;53.438;18.942;2023-02-08T10:53:33;52.38;;;30.20;;
23406;SDS011;11876;53.438;18.942;2023-02-08T10:59:48;45.58;;;28.85;;
23406;SDS011;11876;53.438;18.942;2023-02-08T11:02:53;42.53;;;26.48;;
23406;SDS011;11876;53.438;18.942;2023-02-08T11:05:56;52.90;;;33.03;;
23406;SDS011;11876;53.438;18.942;2023-02-08T11:08:59;63.08;;;37.03;;
23406;SDS011;11876;53.438;18.942;2023-02-08T11:12:01;43.92;;;29.00;;
23406;SDS011;11876;53.438;18.942;2023-02-08T11:15:04;44.50;;;28.27;;
23406;SDS011;11876;53.438;18.942;2023-02-08T11:18:06;44.33;;;27.90;;
23406;SDS011;11876;53.438;18.942;2023-02-08T11:21:40;42.40;;;27.52;;
23406;SDS011;11876;53.438;18.942;2023-02-08T11:24:42;35.80;;;23.05;;
23406;SDS011;11876;53.438;18.942;2023-02-08T11:27:50;38.47;;;23.98;;
23406;SDS011;11876;53.438;18.942;2023-02-08T11:30:54;44.13;;;26.42;;
23406;SDS011;11876;53.438;18.942;2023-02-08T11:34:04;38.70;;;23.38;;
23406;SDS011;11876;53.438;18.942;2023-02-08T11:40:25;131.27;;;67.72;;
23406;SDS011;11876;53.438;18.942;2023-02-08T11:43:34;113.13;;;70.43;;
23406;SDS011;11876;53.438;18.942;2023-02-08T11:46:36;88.63;;;63.50;;
23406;SDS011;11876;53.438;18.942;2023-02-08T11:49:43;56.67;;;35.80;;
23406;SDS011;11876;53.438;18.942;2023-02-08T11:53:00;72.68;;;44.13;;
23406;SDS011;11876;53.438;18.942;2023-02-08T11:56:14;58.00;;;39.05;;
23406;SDS011;11876;53.438;18.942;2023-02-08T11:59:21;47.28;;;29.70;;
23406;SDS011;11876;53.438;18.942;2023-02-08T12:02:35;55.40;;;34.92;;
23406;SDS011;11876;53.438;18.942;2023-02-08T12:22:23;44.63;;;27.73;;
23406;SDS011;11876;53.438;18.942;2023-02-08T12:32:36;38.53;;;25.60;;
23406;SDS011;11876;53.438;18.942;2023-02-08T12:39:19;39.78;;;25.67;;
23406;SDS011;11876;53.438;18.942;2023-02-08T12:42:55;40.10;;;25.00;;
23406;SDS011;11876;53.438;18.942;2023-02-08T12:46:21;41.05;;;26.27;;
23406;SDS011;11876;53.438;18.942;2023-02-08T12:53:14;74.18;;;36.85;;
23406;SDS011;11876;53.438;18.942;2023-02-08T12:56:21;92.50;;;38.20;;
23406;SDS011;11876;53.438;18.942;2023-02-08T12:59:35;109.72;;;41.60;;
23406;SDS011;11876;53.438;18.942;2023-02-08T13:06:08;119.43;;;45.67;;
23406;SDS011;11876;53.438;18.942;2023-02-08T13:09:21;78.78;;;41.90;;
23406;SDS011;11876;53.438;18.942;2023-02-08T13:12:40;60.30;;;34.47;;
23406;SDS011;11876;53.438;18.942;2023-02-08T13:15:47;45.25;;;26.55;;
23406;SDS011;11876;53.438;18.942;2023-02-08T13:19:05;46.70;;;31.42;;
23406;SDS011;11876;53.438;18.942;2023-02-08T13:22:16;46.38;;;27.90;;
23406;SDS011;11876;53.438;18.942;2023-02-08T13:25:53;42.58;;;23.65;;
23406;SDS011;11876;53.438;18.942;2023-02-08T13:28:49;46.22;;;25.70;;
23406;SDS011;11876;53.438;18.942;2023-02-08T13:31:53;41.03;;;24.55;;
23406;SDS011;11876;53.438;18.942;2023-02-08T13:41:30;38.72;;;23.98;;
23406;SDS011;11876;53.438;18.942;2023-02-08T13:44:36;41.53;;;26.67;;
23406;SDS011;11876;53.438;18.942;2023-02-08T13:47:43;42.45;;;27.65;;
23406;SDS011;11876;53.438;18.942;2023-02-08T13:50:53;46.20;;;31.65;;
23406;SDS011;11876;53.438;18.942;2023-02-08T13:57:04;44.88;;;25.33;;
23406;SDS011;11876;53.438;18.942;2023-02-08T14:00:33;40.70;;;23.95;;
23406;SDS011;11876;53.438;18.942;2023-02-08T14:03:37;42.00;;;25.65;;
23406;SDS011;11876;53.438;18.942;2023-02-08T14:09:46;49.90;;;28.48;;
23406;SDS011;11876;53.438;18.942;2023-02-08T14:19:22;36.75;;;24.83;;
23406;SDS011;11876;53.438;18.942;2023-02-08T14:22:33;45.60;;;28.48;;
23406;SDS011;11876;53.438;18.942;2023-02-08T14:28:45;39.03;;;22.35;;
23406;SDS011;11876;53.438;18.942;2023-02-08T14:31:49;35.97;;;22.25;;
23406;SDS011;11876;53.438;18.942;2023-02-08T14:34:58;37.25;;;22.80;;
23406;SDS011;11876;53.438;18.942;2023-02-08T14:44:54;40.90;;;23.27;;
23406;SDS011;11876;53.438;18.942;2023-02-08T14:48:03;61.25;;;31.88;;
23406;SDS011;11876;53.438;18.942;2023-02-08T14:51:26;43.15;;;25.08;;
23406;SDS011;11876;53.438;18.942;2023-02-08T14:54:49;39.30;;;24.48;;
23406;SDS011;11876;53.438;18.942;2023-02-08T14:57:55;67.95;;;36.08;;
23406;SDS011;11876;53.438;18.942;2023-02-08T15:01:02;203.50;;;33.20;;
23406;SDS011;11876;53.438;18.942;2023-02-08T15:04:08;51.05;;;26.70;;
23406;SDS011;11876;53.438;18.942;2023-02-08T15:07:22;42.85;;;26.48;;
23406;SDS011;11876;53.438;18.942;2023-02-08T15:10:33;45.38;;;27.23;;
23406;SDS011;11876;53.438;18.942;2023-02-08T15:13:42;45.50;;;27.08;;
23406;SDS011;11876;53.438;18.942;2023-02-08T15:16:50;45.33;;;26.10;;
23406;SDS011;11876;53.438;18.942;2023-02-08T15:19:55;40.85;;;25.20;;
23406;SDS011;11876;53.438;18.942;2023-02-08T15:23:14;38.60;;;24.73;;
23406;SDS011;11876;53.438;18.942;2023-02-08T15:26:21;44.65;;;25.85;;
23406;SDS011;11876;53.438;18.942;2023-02-08T15:29:25;41.20;;;25.65;;
23406;SDS011;11876;53.438;18.942;2023-02-08T15:32:44;47.95;;;26.85;;
23406;SDS011;11876;53.438;18.942;2023-02-08T15:39:02;36.83;;;20.80;;
23406;SDS011;11876;53.438;18.942;2023-02-08T15:42:20;51.58;;;29.42;;
23406;SDS011;11876;53.438;18.942;2023-02-08T15:45:25;49.22;;;28.33;;
23406;SDS011;11876;53.438;18.942;2023-02-08T15:48:32;49.50;;;29.15;;
23406;SDS011;11876;53.438;18.942;2023-02-08T15:51:34;49.93;;;29.57;;
23406;SDS011;11876;53.438;18.942;2023-02-08T15:54:37;48.10;;;29.40;;
23406;SDS011;11876;53.438;18.942;2023-02-08T15:57:41;49.67;;;30.30;;
23406;SDS011;11876;53.438;18.942;2023-02-08T16:00:46;57.47;;;34.10;;
23406;SDS011;11876;53.438;18.942;2023-02-08T16:03:55;62.13;;;35.75;;
23406;SDS011;11876;53.438;18.942;2023-02-08T16:06:59;52.78;;;30.98;;
23406;SDS011;11876;53.438;18.942;2023-02-08T16:10:02;58.58;;;35.33;;
23406;SDS011;11876;53.438;18.942;2023-02-08T16:13:06;55.13;;;32.05;;
23406;SDS011;11876;53.438;18.942;2023-02-08T16:19:37;66.30;;;36.67;;
23406;SDS011;11876;53.438;18.942;2023-02-08T16:22:39;62.35;;;34.53;;
23406;SDS011;11876;53.438;18.942;2023-02-08T16:25:42;55.28;;;31.58;;
23406;SDS011;11876;53.438;18.942;2023-02-08T16:28:53;61.50;;;37.38;;
23406;SDS011;11876;53.438;18.942;2023-02-08T16:35:23;65.93;;;36.55;;
23406;SDS011;11876;53.438;18.942;2023-02-08T16:38:29;64.93;;;36.78;;
23406;SDS011;11876;53.438;18.942;2023-02-08T16:41:58;68.28;;;38.72;;
23406;SDS011;11876;53.438;18.942;2023-02-08T16:45:15;67.55;;;39.92;;
23406;SDS011;11876;53.438;18.942;2023-02-08T16:48:29;70.03;;;43.28;;
23406;SDS011;11876;53.438;18.942;2023-02-08T16:51:35;72.28;;;40.58;;
23406;SDS011;11876;53.438;18.942;2023-02-08T16:54:43;72.45;;;39.63;;
23406;SDS011;11876;53.438;18.942;2023-02-08T16:57:50;66.05;;;38.00;;
23406;SDS011;11876;53.438;18.942;2023-02-08T17:00:53;74.82;;;39.00;;
23406;SDS011;11876;53.438;18.942;2023-02-08T17:03:58;70.85;;;39.55;;
23406;SDS011;11876;53.438;18.942;2023-02-08T17:07:00;64.82;;;35.42;;
23406;SDS011;11876;53.438;18.942;2023-02-08T17:10:04;71.72;;;38.63;;
23406;SDS011;11876;53.438;18.942;2023-02-08T17:13:07;80.10;;;39.85;;
23406;SDS011;11876;53.438;18.942;2023-02-08T17:16:22;72.20;;;39.45;;
23406;SDS011;11876;53.438;18.942;2023-02-08T17:19:26;73.97;;;37.40;;
23406;SDS011;11876;53.438;18.942;2023-02-08T17:22:28;74.65;;;38.15;;
23406;SDS011;11876;53.438;18.942;2023-02-08T17:25:31;73.57;;;38.53;;
23406;SDS011;11876;53.438;18.942;2023-02-08T17:28:34;73.78;;;37.03;;
23406;SDS011;11876;53.438;18.942;2023-02-08T17:31:39;81.15;;;40.25;;
23406;SDS011;11876;53.438;18.942;2023-02-08T17:34:41;70.32;;;37.50;;
23406;SDS011;11876;53.438;18.942;2023-02-08T17:37:44;78.28;;;41.35;;
23406;SDS011;11876;53.438;18.942;2023-02-08T17:40:48;80.90;;;41.42;;
23406;SDS011;11876;53.438;18.942;2023-02-08T17:43:51;77.32;;;39.50;;
23406;SDS011;11876;53.438;18.942;2023-02-08T17:46:54;74.93;;;42.42;;
23406;SDS011;11876;53.438;18.942;2023-02-08T17:49:57;81.13;;;42.13;;
23406;SDS011;11876;53.438;18.942;2023-02-08T17:53:00;84.93;;;42.15;;
23406;SDS011;11876;53.438;18.942;2023-02-08T17:56:03;83.55;;;42.33;;
23406;SDS011;11876;53.438;18.942;2023-02-08T17:59:08;80.53;;;41.17;;
23406;SDS011;11876;53.438;18.942;2023-02-08T18:02:10;80.32;;;42.55;;
23406;SDS011;11876;53.438;18.942;2023-02-08T18:05:13;74.90;;;40.88;;
23406;SDS011;11876;53.438;18.942;2023-02-08T18:08:16;82.75;;;40.80;;
23406;SDS011;11876;53.438;18.942;2023-02-08T18:11:19;82.22;;;43.40;;
23406;SDS011;11876;53.438;18.942;2023-02-08T18:14:23;80.30;;;43.42;;
23406;SDS011;11876;53.438;18.942;2023-02-08T18:17:26;91.00;;;46.33;;
23406;SDS011;11876;53.438;18.942;2023-02-08T18:20:28;76.97;;;40.15;;
23406;SDS011;11876;53.438;18.942;2023-02-08T18:23:30;78.47;;;41.83;;
23406;SDS011;11876;53.438;18.942;2023-02-08T18:26:33;83.57;;;42.50;;
23406;SDS011;11876;53.438;18.942;2023-02-08T18:29:36;62.03;;;34.40;;
23406;SDS011;11876;53.438;18.942;2023-02-08T18:32:38;86.55;;;45.25;;
23406;SDS011;11876;53.438;18.942;2023-02-08T18:35:46;79.43;;;43.40;;
23406;SDS011;11876;53.438;18.942;2023-02-08T18:38:50;77.82;;;41.38;;
23406;SDS011;11876;53.438;18.942;2023-02-08T18:41:53;79.95;;;42.30;;
23406;SDS011;11876;53.438;18.942;2023-02-08T18:44:55;74.75;;;38.65;;
23406;SDS011;11876;53.438;18.942;2023-02-08T18:47:58;78.97;;;41.72;;
23406;SDS011;11876;53.438;18.942;2023-02-08T18:51:00;73.43;;;39.92;;
23406;SDS011;11876;53.438;18.942;2023-02-08T18:54:06;75.55;;;40.75;;
23406;SDS011;11876;53.438;18.942;2023-02-08T18:57:09;76.32;;;39.53;;
23406;SDS011;11876;53.438;18.942;2023-02-08T19:00:11;83.13;;;42.47;;
23406;SDS011;11876;53.438;18.942;2023-02-08T19:03:14;80.40;;;40.50;;
23406;SDS011;11876;53.438;18.942;2023-02-08T19:06:22;77.88;;;37.08;;
23406;SDS011;11876;53.438;18.942;2023-02-08T19:09:26;78.35;;;39.67;;
23406;SDS011;11876;53.438;18.942;2023-02-08T19:12:28;71.40;;;38.92;;
23406;SDS011;11876;53.438;18.942;2023-02-08T19:15:30;73.78;;;40.70;;
23406;SDS011;11876;53.438;18.942;2023-02-08T19:18:36;85.50;;;43.15;;
23406;SDS011;11876;53.438;18.942;2023-02-08T19:21:39;83.07;;;41.90;;
23406;SDS011;11876;53.438;18.942;2023-02-08T19:24:41;78.53;;;41.38;;
23406;SDS011;11876;53.438;18.942;2023-02-08T19:27:47;78.82;;;41.17;;
23406;SDS011;11876;53.438;18.942;2023-02-08T19:31:00;81.55;;;41.58;;
23406;SDS011;11876;53.438;18.942;2023-02-08T19:34:06;82.30;;;41.20;;
23406;SDS011;11876;53.438;18.942;2023-02-08T19:37:09;80.97;;;42.33;;
23406;SDS011;11876;53.438;18.942;2023-02-08T19:40:11;80.05;;;41.08;;
23406;SDS011;11876;53.438;18.942;2023-02-08T19:43:14;60.57;;;31.83;;
23406;SDS011;11876;53.438;18.942;2023-02-08T19:46:17;84.07;;;42.28;;
23406;SDS011;11876;53.438;18.942;2023-02-08T19:49:22;80.35;;;42.95;;
23406;SDS011;11876;53.438;18.942;2023-02-08T19:52:26;85.00;;;46.40;;
23406;SDS011;11876;53.438;18.942;2023-02-08T19:55:28;87.50;;;44.17;;
23406;SDS011;11876;53.438;18.942;2023-02-08T19:58:32;89.32;;;44.95;;
23406;SDS011;11876;53.438;18.942;2023-02-08T20:01:35;99.70;;;46.50;;
23406;SDS011;11876;53.438;18.942;2023-02-08T20:04:37;105.13;;;55.30;;
23406;SDS011;11876;53.438;18.942;2023-02-08T20:07:40;100.65;;;52.72;;
23406;SDS011;11876;53.438;18.942;2023-02-08T20:10:43;88.45;;;46.08;;
23406;SDS011;11876;53.438;18.942;2023-02-08T20:13:47;93.22;;;47.35;;
23406;SDS011;11876;53.438;18.942;2023-02-08T20:16:49;90.85;;;46.55;;
23406;SDS011;11876;53.438;18.942;2023-02-08T20:19:52;91.70;;;47.70;;
23406;SDS011;11876;53.438;18.942;2023-02-08T20:22:54;91.03;;;46.08;;